Time;durP1;ratioP1;P1;durP2;ratioP2;P2;SDS_P1;SDS_P2;PMS_P1;PMS_P2;Temp;Humidity;BMP_temperature;BMP_pressure;BME280_temperature;BME280_humidity;BME280_pressure;Samples;Min_cycle;Max_cycle;Signal;HPM_P1;HPM_P2
2022/04/29 00:01:56;;;;;;;26.45;13.02;;;;;;;;;;6263934;28;20040;-60
2022/04/29 00:04:57;;;;;;;24.05;13.82;;;;;;;;;;6262997;28;20431;-60
2022/04/29 00:07:57;;;;;;;25.77;12.85;;;;;;;;;;6264557;28;20171;-60
2022/04/29 00:10:58;;;;;;;32.80;15.10;;;;;;;;;;6265886;28;20068;-60
2022/04/29 00:13:59;;;;;;;29.33;15.93;;;;;;;;;;6266469;28;20160;-60
2022/04/29 00:16:59;;;;;;;30.95;15.43;;;;;;;;;;6263841;28;20056;-60
2022/04/29 00:20:00;;;;;;;31.65;16.40;;;;;;;;;;6267084;28;20049;-60
2022/04/29 00:23:01;;;;;;;32.75;17.42;;;;;;;;;;6265334;28;20053;-59
2022/04/29 00:26:02;;;;;;;30.27;16.90;;;;;;;;;;6264703;28;20060;-59
2022/04/29 00:29:04;;;;;;;31.25;16.35;;;;;;;;;;6263376;28;20057;-59
2022/04/29 00:32:05;;;;;;;28.58;14.48;;;;;;;;;;6264164;28;20056;-59
2022/04/29 00:35:08;;;;;;;29.08;15.90;;;;;;;;;;6265085;28;20063;-60
2022/04/29 00:38:15;;;;;;;30.30;15.63;;;;;;;;;;6264321;28;20060;-59
2022/04/29 00:41:17;;;;;;;31.50;14.52;;;;;;;;;;6266286;28;20125;-59
2022/04/29 00:44:17;;;;;;;36.25;15.73;;;;;;;;;;6266226;28;20511;-59
2022/04/29 00:47:20;;;;;;;32.65;16.60;;;;;;;;;;6264002;28;20547;-60
2022/04/29 00:50:23;;;;;;;60.97;34.22;;;;;;;;;;6262423;28;20155;-60
2022/04/29 00:53:26;;;;;;;64.47;32.72;;;;;;;;;;6255350;28;20075;-60
2022/04/29 00:56:30;;;;;;;42.03;18.75;;;;;;;;;;6262922;28;20063;-59
2022/04/29 00:59:40;;;;;;;44.70;19.63;;;;;;;;;;6263026;28;20480;-59
2022/04/29 01:02:48;;;;;;;42.50;20.83;;;;;;;;;;6264907;28;20045;-60
2022/04/29 01:05:49;;;;;;;34.50;17.83;;;;;;;;;;6263180;28;20077;-59
2022/04/29 01:08:49;;;;;;;39.65;19.17;;;;;;;;;;6261492;28;20056;-60
2022/04/29 01:11:51;;;;;;;43.13;20.92;;;;;;;;;;6261895;28;20522;-59
2022/04/29 01:14:57;;;;;;;37.35;19.20;;;;;;;;;;6263911;28;20140;-60
2022/04/29 01:18:01;;;;;;;38.58;19.95;;;;;;;;;;6252239;28;20126;-60
2022/04/29 01:21:04;;;;;;;38.08;18.13;;;;;;;;;;6261473;28;20098;-59
2022/04/29 01:24:07;;;;;;;37.92;19.42;;;;;;;;;;6264420;28;20060;-60
2022/04/29 01:27:11;;;;;;;42.00;18.25;;;;;;;;;;6264156;28;20041;-60
2022/04/29 01:30:16;;;;;;;34.40;18.00;;;;;;;;;;6263677;28;20048;-60
2022/04/29 01:33:18;;;;;;;35.78;17.80;;;;;;;;;;6263451;28;20056;-60
2022/04/29 01:36:19;;;;;;;36.95;18.38;;;;;;;;;;6269414;28;20080;-58
2022/04/29 01:39:19;;;;;;;42.55;19.65;;;;;;;;;;6262998;28;20493;-58
2022/04/29 01:42:20;;;;;;;48.25;23.38;;;;;;;;;;6265278;28;20048;-60
2022/04/29 01:45:21;;;;;;;40.08;18.35;;;;;;;;;;6267275;28;20127;-59
2022/04/29 01:48:25;;;;;;;39.47;19.50;;;;;;;;;;6267183;28;20115;-58
2022/04/29 01:51:25;;;;;;;42.53;20.17;;;;;;;;;;6268004;28;20056;-59
2022/04/29 01:54:26;;;;;;;38.85;19.08;;;;;;;;;;6267662;28;20045;-59
2022/04/29 01:57:26;;;;;;;43.28;20.27;;;;;;;;;;6268804;28;20094;-59
2022/04/29 02:00:27;;;;;;;44.50;21.42;;;;;;;;;;6265496;28;20049;-59
2022/04/29 02:03:28;;;;;;;48.35;23.23;;;;;;;;;;6262945;28;20051;-60
2022/04/29 02:06:28;;;;;;;44.30;22.27;;;;;;;;;;6268229;28;20467;-59
2022/04/29 02:09:29;;;;;;;49.70;22.75;;;;;;;;;;6266411;28;20037;-59
2022/04/29 02:12:30;;;;;;;46.15;21.05;;;;;;;;;;6268489;28;20057;-59
2022/04/29 02:15:30;;;;;;;41.08;20.00;;;;;;;;;;6268569;28;20187;-59
2022/04/29 02:18:31;;;;;;;40.60;20.17;;;;;;;;;;6265719;28;20056;-59
2022/04/29 02:21:32;;;;;;;39.33;19.88;;;;;;;;;;6266186;28;20048;-60
2022/04/29 02:24:32;;;;;;;36.33;18.98;;;;;;;;;;6265159;28;20053;-60
2022/04/29 02:27:33;;;;;;;52.33;28.40;;;;;;;;;;6265966;28;20132;-60
2022/04/29 02:30:34;;;;;;;41.95;21.27;;;;;;;;;;6267198;28;20091;-60
2022/04/29 02:33:35;;;;;;;40.25;19.92;;;;;;;;;;6267818;28;20131;-59
2022/04/29 02:36:35;;;;;;;36.47;18.67;;;;;;;;;;6268034;28;20103;-59
2022/04/29 02:39:37;;;;;;;41.03;19.85;;;;;;;;;;6263414;28;20130;-60
2022/04/29 02:42:37;;;;;;;37.58;19.10;;;;;;;;;;6264622;28;20037;-59
2022/04/29 02:45:38;;;;;;;38.95;19.23;;;;;;;;;;6267409;28;20150;-60
2022/04/29 02:48:39;;;;;;;45.05;22.05;;;;;;;;;;6264174;28;20049;-59
2022/04/29 02:51:40;;;;;;;41.45;20.10;;;;;;;;;;6266524;28;20051;-60
2022/04/29 02:54:41;;;;;;;41.92;20.55;;;;;;;;;;6268216;28;20078;-60
2022/04/29 02:57:42;;;;;;;43.00;20.30;;;;;;;;;;6266742;28;20143;-59
2022/04/29 03:00:43;;;;;;;48.10;22.10;;;;;;;;;;6263726;28;20057;-59
2022/04/29 03:03:43;;;;;;;42.20;18.45;;;;;;;;;;6264690;28;20136;-59
2022/04/29 03:06:44;;;;;;;41.15;19.70;;;;;;;;;;6265615;28;20045;-59
2022/04/29 03:09:47;;;;;;;39.10;19.17;;;;;;;;;;6262398;28;20045;-60
2022/04/29 03:12:47;;;;;;;48.55;20.73;;;;;;;;;;6265939;28;20064;-59
2022/04/29 03:15:48;;;;;;;46.05;23.02;;;;;;;;;;6264895;28;20136;-59
2022/04/29 03:18:49;;;;;;;43.25;22.20;;;;;;;;;;6264832;28;20051;-59
2022/04/29 03:21:49;;;;;;;134.48;60.00;;;;;;;;;;6267173;28;20477;-59
2022/04/29 03:24:50;;;;;;;58.63;29.42;;;;;;;;;;6267355;28;20511;-59
2022/04/29 03:27:51;;;;;;;59.42;29.75;;;;;;;;;;6264954;28;20078;-59
2022/04/29 03:30:51;;;;;;;56.78;25.70;;;;;;;;;;6264526;28;21153;-60
2022/04/29 03:33:52;;;;;;;48.97;24.38;;;;;;;;;;6267406;28;20682;-59
2022/04/29 03:36:53;;;;;;;44.80;23.73;;;;;;;;;;6264989;28;20488;-60
2022/04/29 03:39:53;;;;;;;48.03;23.40;;;;;;;;;;6262200;28;20136;-59
2022/04/29 03:42:56;;;;;;;40.65;21.98;;;;;;;;;;6265306;28;20132;-59
2022/04/29 03:45:57;;;;;;;41.95;22.08;;;;;;;;;;6262946;28;20061;-59
2022/04/29 03:52:16;;;;;;;43.63;22.52;;;;;;;;;;6265347;28;20049;-59
2022/04/29 03:55:22;;;;;;;47.28;23.05;;;;;;;;;;6267045;28;20459;-60
2022/04/29 03:58:22;;;;;;;39.60;21.05;;;;;;;;;;6264881;28;20684;-59
2022/04/29 04:01:23;;;;;;;41.03;21.15;;;;;;;;;;6264506;28;20068;-59
2022/04/29 04:04:24;;;;;;;49.67;23.85;;;;;;;;;;6263712;28;20498;-60
2022/04/29 04:07:27;;;;;;;43.13;21.90;;;;;;;;;;6263708;28;20048;-59
2022/04/29 04:10:27;;;;;;;46.78;24.08;;;;;;;;;;6262620;28;20052;-60
2022/04/29 04:13:28;;;;;;;50.92;24.85;;;;;;;;;;6260851;28;20049;-60
2022/04/29 04:16:28;;;;;;;50.72;22.38;;;;;;;;;;6263381;28;20127;-60
2022/04/29 04:19:29;;;;;;;45.10;20.30;;;;;;;;;;6262723;28;20044;-60
2022/04/29 04:22:30;;;;;;;48.67;23.45;;;;;;;;;;6263147;28;20115;-61
2022/04/29 04:25:31;;;;;;;55.85;28.73;;;;;;;;;;6266378;28;20076;-60
2022/04/29 04:28:31;;;;;;;61.40;29.73;;;;;;;;;;6266665;28;20055;-60
2022/04/29 04:31:32;;;;;;;67.25;34.85;;;;;;;;;;6262865;28;20079;-58
2022/04/29 04:34:51;;;;;;;82.97;44.63;;;;;;;;;;6263450;28;20060;-59
2022/04/29 04:37:51;;;;;;;91.00;46.78;;;;;;;;;;6259915;28;20127;-60
2022/04/29 04:40:53;;;;;;;100.90;48.47;;;;;;;;;;6262716;28;20563;-60
2022/04/29 04:43:53;;;;;;;74.18;36.00;;;;;;;;;;6265479;28;20131;-60
2022/04/29 04:46:55;;;;;;;83.32;40.08;;;;;;;;;;6263183;28;20746;-59
2022/04/29 04:49:56;;;;;;;77.45;38.28;;;;;;;;;;6259743;28;20042;-59
2022/04/29 04:52:56;;;;;;;87.55;43.75;;;;;;;;;;6264588;28;20781;-60
2022/04/29 04:55:57;;;;;;;92.22;42.80;;;;;;;;;;6264021;28;20488;-59
2022/04/29 04:58:58;;;;;;;84.38;41.08;;;;;;;;;;6262405;28;20131;-60
2022/04/29 05:01:58;;;;;;;74.75;35.83;;;;;;;;;;6255108;28;20133;-60
2022/04/29 05:04:59;;;;;;;82.35;37.05;;;;;;;;;;6259183;28;20220;-60
2022/04/29 05:08:00;;;;;;;87.82;36.60;;;;;;;;;;6259905;28;20136;-60
2022/04/29 05:11:00;;;;;;;90.03;35.47;;;;;;;;;;6259142;28;20040;-59
2022/04/29 05:14:01;;;;;;;79.82;34.45;;;;;;;;;;6262537;28;20044;-60
2022/04/29 05:17:02;;;;;;;75.80;35.55;;;;;;;;;;6264302;28;20063;-60
2022/04/29 05:20:03;;;;;;;63.53;29.45;;;;;;;;;;6258992;28;21041;-60
2022/04/29 05:23:04;;;;;;;63.47;29.90;;;;;;;;;;6259510;28;20079;-60
2022/04/29 05:26:04;;;;;;;63.92;28.90;;;;;;;;;;6262878;28;20049;-60
2022/04/29 05:29:05;;;;;;;58.67;27.77;;;;;;;;;;6262383;28;20053;-60
2022/04/29 05:32:07;;;;;;;55.63;26.10;;;;;;;;;;6262318;28;20045;-60
2022/04/29 05:35:09;;;;;;;51.22;26.05;;;;;;;;;;6262674;28;20052;-60
2022/04/29 05:38:10;;;;;;;83.53;38.55;;;;;;;;;;6258037;28;20049;-60
2022/04/29 05:44:30;;;;;;;62.05;31.30;;;;;;;;;;6263351;28;20065;-61
2022/04/29 05:47:30;;;;;;;67.18;32.80;;;;;;;;;;6263399;28;20048;-61
2022/04/29 05:50:31;;;;;;;66.68;34.47;;;;;;;;;;6264438;28;20048;-60
2022/04/29 05:53:31;;;;;;;75.32;37.20;;;;;;;;;;6263704;28;20128;-60
2022/04/29 05:56:32;;;;;;;75.82;35.08;;;;;;;;;;6265985;28;20045;-59
2022/04/29 05:59:33;;;;;;;59.22;32.08;;;;;;;;;;6263957;28;20143;-60
2022/04/29 06:02:33;;;;;;;64.35;32.65;;;;;;;;;;6264065;28;20059;-60
2022/04/29 06:05:34;;;;;;;67.50;34.03;;;;;;;;;;6261302;28;20133;-61
2022/04/29 06:08:34;;;;;;;68.15;32.90;;;;;;;;;;6261455;28;20103;-60
2022/04/29 06:11:36;;;;;;;60.70;31.17;;;;;;;;;;6259817;28;20480;-60
2022/04/29 06:14:37;;;;;;;70.17;34.43;;;;;;;;;;6261338;28;20749;-60
2022/04/29 06:17:37;;;;;;;69.25;33.35;;;;;;;;;;6261663;28;20049;-60
2022/04/29 06:20:38;;;;;;;63.72;34.92;;;;;;;;;;6266364;28;20055;-60
2022/04/29 06:23:39;;;;;;;58.72;30.10;;;;;;;;;;6267280;28;20047;-60
2022/04/29 06:26:39;;;;;;;60.40;29.23;;;;;;;;;;6268132;28;20076;-60
2022/04/29 06:29:40;;;;;;;55.25;28.17;;;;;;;;;;6267656;28;20045;-60
2022/04/29 06:32:41;;;;;;;49.08;25.15;;;;;;;;;;6266089;28;20118;-60
2022/04/29 06:35:42;;;;;;;53.92;27.30;;;;;;;;;;6266727;28;20049;-55
2022/04/29 06:38:43;;;;;;;52.15;26.05;;;;;;;;;;6266668;28;20041;-59
2022/04/29 06:41:43;;;;;;;51.67;25.20;;;;;;;;;;6266022;28;20206;-60
2022/04/29 06:44:46;;;;;;;50.78;26.63;;;;;;;;;;6264778;28;20084;-60
2022/04/29 06:47:46;;;;;;;46.58;25.35;;;;;;;;;;6265072;28;20048;-60
2022/04/29 06:50:47;;;;;;;46.53;24.73;;;;;;;;;;6264571;28;20059;-60
2022/04/29 06:53:48;;;;;;;48.30;25.42;;;;;;;;;;6267152;28;20690;-60
2022/04/29 06:56:48;;;;;;;47.80;24.70;;;;;;;;;;6268539;28;20441;-60
2022/04/29 06:59:49;;;;;;;55.30;25.40;;;;;;;;;;6264940;28;20147;-60
2022/04/29 07:02:51;;;;;;;50.63;25.48;;;;;;;;;;6266129;28;20045;-60
2022/04/29 07:05:52;;;;;;;52.88;26.25;;;;;;;;;;6265978;28;20080;-60
2022/04/29 07:08:53;;;;;;;45.08;23.67;;;;;;;;;;6264410;28;20106;-60
2022/04/29 07:11:56;;;;;;;45.38;26.10;;;;;;;;;;6263200;28;20484;-60
2022/04/29 07:14:57;;;;;;;53.15;26.70;;;;;;;;;;6264737;28;20449;-60
2022/04/29 07:17:58;;;;;;;48.08;23.98;;;;;;;;;;6265185;28;20600;-60
2022/04/29 07:20:59;;;;;;;51.42;25.77;;;;;;;;;;6264553;28;20057;-60
2022/04/29 07:23:59;;;;;;;58.80;26.30;;;;;;;;;;6266458;28;20140;-60
2022/04/29 07:27:00;;;;;;;56.67;25.73;;;;;;;;;;6265842;28;20068;-60
2022/04/29 07:30:04;;;;;;;70.93;27.80;;;;;;;;;;6265831;28;20564;-60
2022/04/29 07:33:04;;;;;;;52.22;23.98;;;;;;;;;;6260620;28;20073;-60
2022/04/29 07:42:44;;;;;;;45.72;23.58;;;;;;;;;;6261847;28;20737;-60
2022/04/29 07:45:45;;;;;;;47.33;22.97;;;;;;;;;;6263473;28;20837;-60
2022/04/29 07:48:46;;;;;;;38.42;21.05;;;;;;;;;;6263475;28;20113;-60
2022/04/29 07:51:47;;;;;;;35.05;17.55;;;;;;;;;;6264064;28;20049;-60
2022/04/29 07:54:47;;;;;;;37.13;17.73;;;;;;;;;;6261727;28;20123;-60
2022/04/29 07:57:48;;;;;;;22.02;12.55;;;;;;;;;;6263145;28;20045;-60
2022/04/29 08:00:48;;;;;;;26.05;13.52;;;;;;;;;;6263773;28;20049;-60
2022/04/29 08:03:50;;;;;;;33.80;14.77;;;;;;;;;;6260822;28;20053;-60
2022/04/29 08:06:50;;;;;;;30.33;14.90;;;;;;;;;;6264772;28;20053;-60
2022/04/29 08:09:51;;;;;;;32.50;14.45;;;;;;;;;;6263632;28;20075;-60
2022/04/29 08:12:51;;;;;;;21.67;10.60;;;;;;;;;;6266440;28;20392;-60
2022/04/29 08:15:52;;;;;;;22.13;9.20;;;;;;;;;;6266244;28;20103;-60
2022/04/29 08:18:53;;;;;;;18.42;8.60;;;;;;;;;;6266829;28;20458;-60
2022/04/29 08:21:53;;;;;;;17.30;9.50;;;;;;;;;;6266393;28;20045;-60
2022/04/29 08:24:54;;;;;;;11.52;6.13;;;;;;;;;;6263195;28;20474;-60
2022/04/29 08:27:54;;;;;;;16.17;5.60;;;;;;;;;;6265318;28;20045;-60
2022/04/29 08:30:55;;;;;;;9.90;5.13;;;;;;;;;;6266177;28;20048;-60
2022/04/29 08:33:56;;;;;;;8.35;4.70;;;;;;;;;;6262692;28;20049;-59
2022/04/29 08:36:56;;;;;;;11.25;4.40;;;;;;;;;;6264721;28;20071;-60
2022/04/29 08:39:57;;;;;;;9.60;4.32;;;;;;;;;;6262638;28;20091;-60
2022/04/29 08:42:59;;;;;;;8.05;4.15;;;;;;;;;;6259608;28;20084;-60
2022/04/29 08:46:00;;;;;;;;;;;;;;;;;;6258342;28;20404;-60
2022/04/29 08:49:02;;;;;;;7.57;3.85;;;;;;;;;;6263445;28;20004;-60
2022/04/29 08:52:03;;;;;;;7.93;4.22;;;;;;;;;;6262706;28;20072;-60
2022/04/29 08:58:37;;;;;;;9.25;4.95;;;;;;;;;;6262122;28;20045;-60
2022/04/29 09:01:40;;;;;;;8.02;4.10;;;;;;;;;;6264418;28;20087;-60
2022/04/29 09:04:40;;;;;;;8.52;3.83;;;;;;;;;;6263753;28;20567;-61
2022/04/29 09:08:02;;;;;;;9.10;4.50;;;;;;;;;;6263227;28;20048;-60
2022/04/29 09:11:05;;;;;;;10.20;4.97;;;;;;;;;;6262109;28;20477;-61
2022/04/29 09:14:22;;;;;;;;;;;;;;;;;;6265413;28;20049;-60
2022/04/29 09:17:29;;;;;;;9.70;4.53;;;;;;;;;;6261807;28;19960;-60
2022/04/29 09:20:29;;;;;;;9.02;5.10;;;;;;;;;;6264067;28;20053;-60
2022/04/29 09:23:31;;;;;;;11.52;4.63;;;;;;;;;;6261747;28;20128;-60
2022/04/29 09:26:36;;;;;;;9.33;5.47;;;;;;;;;;6260836;28;20861;-60
2022/04/29 09:29:41;;;;;;;9.50;5.28;;;;;;;;;;6261418;28;20041;-60
2022/04/29 09:32:49;;;;;;;10.25;5.00;;;;;;;;;;6261660;28;20156;-60
2022/04/29 09:35:50;;;;;;;8.75;5.00;;;;;;;;;;6261887;28;20491;-60
2022/04/29 09:42:15;;;;;;;13.05;5.43;;;;;;;;;;6261975;28;20492;-60
2022/04/29 09:45:24;;;;;;;10.82;5.25;;;;;;;;;;6264004;28;20072;-60
2022/04/29 09:48:25;;;;;;;10.23;4.40;;;;;;;;;;6261101;28;20122;-60
2022/04/29 09:51:59;;;;;;;11.90;5.05;;;;;;;;;;6261245;28;20037;-60
2022/04/29 09:55:11;;;;;;;9.18;5.00;;;;;;;;;;6257624;28;20049;-60
2022/04/29 09:58:11;;;;;;;10.47;4.97;;;;;;;;;;6262158;28;20053;-60
2022/04/29 10:01:15;;;;;;;10.82;5.57;;;;;;;;;;6267470;28;20138;-60
2022/04/29 10:04:15;;;;;;;9.63;5.38;;;;;;;;;;6264649;28;20548;-60
2022/04/29 10:07:21;;;;;;;10.45;5.05;;;;;;;;;;6269528;28;20099;-61
2022/04/29 10:10:24;;;;;;;8.57;4.63;;;;;;;;;;6267754;28;20045;-60
2022/04/29 10:13:27;;;;;;;9.75;5.25;;;;;;;;;;6262636;28;20068;-61
2022/04/29 10:16:32;;;;;;;10.15;4.85;;;;;;;;;;6265356;28;20130;-59
2022/04/29 10:23:02;;;;;;;10.68;4.85;;;;;;;;;;6264698;28;20057;-59
2022/04/29 10:26:04;;;;;;;8.05;5.00;;;;;;;;;;6266265;28;20049;-59
2022/04/29 10:29:06;;;;;;;8.38;4.78;;;;;;;;;;6268341;28;20080;-60
2022/04/29 10:32:08;;;;;;;6.68;4.30;;;;;;;;;;6266252;28;20140;-60
2022/04/29 10:35:47;;;;;;;9.05;4.22;;;;;;;;;;6266145;28;20403;-60
2022/04/29 10:38:47;;;;;;;7.93;4.78;;;;;;;;;;6265637;28;20053;-61
2022/04/29 10:42:11;;;;;;;9.00;4.82;;;;;;;;;;6267172;28;20107;-60
2022/04/29 10:45:11;;;;;;;9.48;4.78;;;;;;;;;;6266169;28;20458;-60
2022/04/29 10:48:31;;;;;;;9.32;4.47;;;;;;;;;;6264628;28;20179;-60
2022/04/29 10:51:32;;;;;;;8.32;4.55;;;;;;;;;;6264167;28;20068;-59
2022/04/29 10:54:40;;;;;;;10.18;4.55;;;;;;;;;;6266171;28;20045;-60
2022/04/29 10:57:44;;;;;;;8.50;4.80;;;;;;;;;;6266472;28;20099;-60
2022/04/29 11:01:17;;;;;;;9.27;5.28;;;;;;;;;;6263040;28;20052;-60
2022/04/29 11:04:17;;;;;;;9.80;5.32;;;;;;;;;;6265177;28;20128;-60
2022/04/29 11:07:42;;;;;;;7.82;4.00;;;;;;;;;;6265151;28;20452;-59
2022/04/29 11:10:56;;;;;;;7.28;4.40;;;;;;;;;;6266561;28;20238;-61
2022/04/29 11:14:00;;;;;;;9.32;4.80;;;;;;;;;;6264727;28;20515;-60
2022/04/29 11:17:10;;;;;;;8.75;4.70;;;;;;;;;;6267200;28;20079;-60
2022/04/29 11:20:22;;;;;;;10.50;5.10;;;;;;;;;;6266787;28;20385;-59
2022/04/29 11:26:50;;;;;;;8.55;4.78;;;;;;;;;;6263975;28;20049;-60
2022/04/29 11:29:52;;;;;;;10.30;5.10;;;;;;;;;;6264632;28;20535;-59
2022/04/29 11:32:53;;;;;;;7.18;4.45;;;;;;;;;;6277537;28;20064;-60
2022/04/29 11:36:11;;;;;;;10.57;5.30;;;;;;;;;;6260852;28;20140;-60
2022/04/29 11:39:17;;;;;;;9.35;5.47;;;;;;;;;;6267359;28;20094;-59
2022/04/29 11:42:19;;;;;;;10.90;5.20;;;;;;;;;;6264001;28;20045;-60
2022/04/29 11:45:21;;;;;;;9.05;5.28;;;;;;;;;;6266357;28;20049;-59
2022/04/29 11:48:22;;;;;;;9.02;5.60;;;;;;;;;;6263852;28;20535;-59
2022/04/29 11:51:23;;;;;;;9.90;5.90;;;;;;;;;;6266256;28;20047;-60
2022/04/29 11:54:24;;;;;;;7.03;4.83;;;;;;;;;;6265419;28;20412;-59
2022/04/29 11:57:28;;;;;;;8.38;5.18;;;;;;;;;;6264139;28;20123;-60
2022/04/29 12:00:31;;;;;;;12.95;5.30;;;;;;;;;;6265213;28;20225;-60
2022/04/29 12:03:31;;;;;;;13.90;6.55;;;;;;;;;;6264894;28;20135;-60
2022/04/29 12:06:32;;;;;;;11.85;5.88;;;;;;;;;;6262647;28;20517;-59
2022/04/29 12:09:33;;;;;;;14.77;7.10;;;;;;;;;;6262948;28;20136;-59
2022/04/29 12:12:33;;;;;;;10.95;6.00;;;;;;;;;;6266005;28;20076;-59
2022/04/29 12:15:36;;;;;;;11.32;5.50;;;;;;;;;;6262545;28;20045;-59
2022/04/29 12:18:42;;;;;;;9.52;4.93;;;;;;;;;;6262099;28;20053;-59
2022/04/29 12:21:54;;;;;;;10.10;5.95;;;;;;;;;;6265783;28;20045;-59
2022/04/29 12:24:55;;;;;;;19.48;7.63;;;;;;;;;;6264667;28;20045;-62
2022/04/29 12:28:08;;;;;;;11.35;5.45;;;;;;;;;;6262652;28;20136;-61
2022/04/29 12:34:48;;;;;;;11.40;6.03;;;;;;;;;;6264333;28;20303;-61
2022/04/29 12:37:51;;;;;;;16.98;7.43;;;;;;;;;;6262993;28;20045;-60
2022/04/29 12:40:52;;;;;;;12.60;5.20;;;;;;;;;;6261019;28;20496;-61
2022/04/29 12:44:05;;;;;;;9.18;5.80;;;;;;;;;;6263911;28;20257;-61
2022/04/29 12:47:24;;;;;;;14.60;7.50;;;;;;;;;;6265539;28;20116;-61
2022/04/29 12:50:26;;;;;;;9.70;5.28;;;;;;;;;;6264057;28;20063;-58
2022/04/29 12:53:30;;;;;;;10.07;5.40;;;;;;;;;;6262720;28;20122;-60
2022/04/29 12:56:33;;;;;;;13.77;6.30;;;;;;;;;;6263868;28;20068;-61
2022/04/29 12:59:37;;;;;;;9.77;5.60;;;;;;;;;;6264507;28;20063;-61
2022/04/29 13:02:38;;;;;;;12.98;6.15;;;;;;;;;;6262621;28;20047;-60
2022/04/29 13:05:40;;;;;;;10.13;5.10;;;;;;;;;;6264601;28;20041;-60
2022/04/29 13:08:41;;;;;;;7.30;4.53;;;;;;;;;;6263892;28;20080;-60
2022/04/29 13:11:43;;;;;;;8.82;4.57;;;;;;;;;;6263742;28;20055;-60
2022/04/29 13:14:44;;;;;;;9.55;4.80;;;;;;;;;;6263396;28;20438;-60
2022/04/29 13:17:44;;;;;;;9.73;5.45;;;;;;;;;;6262962;28;20144;-60
2022/04/29 13:20:46;;;;;;;12.80;6.22;;;;;;;;;;6261502;28;20053;-59
2022/04/29 13:23:47;;;;;;;14.07;6.72;;;;;;;;;;6264372;28;20172;-60
2022/04/29 13:26:48;;;;;;;12.52;5.85;;;;;;;;;;6262762;28;20052;-59
2022/04/29 13:29:48;;;;;;;8.75;4.90;;;;;;;;;;6266070;28;20049;-59
2022/04/29 13:32:49;;;;;;;10.63;5.18;;;;;;;;;;6263868;28;20123;-59
2022/04/29 13:35:51;;;;;;;10.13;4.85;;;;;;;;;;6268158;28;20041;-59
2022/04/29 13:38:52;;;;;;;9.10;4.63;;;;;;;;;;6269454;28;20045;-59
2022/04/29 13:41:53;;;;;;;8.50;4.80;;;;;;;;;;6268049;28;20051;-59
2022/04/29 13:44:53;;;;;;;9.48;5.18;;;;;;;;;;6268063;28;20048;-59
2022/04/29 13:47:54;;;;;;;7.72;4.63;;;;;;;;;;6266514;28;20094;-59
2022/04/29 13:50:55;;;;;;;10.93;4.93;;;;;;;;;;6268526;28;20072;-59
2022/04/29 13:53:56;;;;;;;8.70;4.03;;;;;;;;;;6265693;28;20416;-59
2022/04/29 13:56:58;;;;;;;7.63;4.22;;;;;;;;;;6268934;28;20048;-59
2022/04/29 13:59:59;;;;;;;10.80;4.53;;;;;;;;;;6269995;28;20412;-59
2022/04/29 14:03:00;;;;;;;12.20;4.95;;;;;;;;;;6263602;28;20058;-59
2022/04/29 14:06:01;;;;;;;7.63;4.63;;;;;;;;;;6268065;28;20121;-59
2022/04/29 14:09:02;;;;;;;11.88;4.65;;;;;;;;;;6268888;28;20519;-60
2022/04/29 14:12:03;;;;;;;7.43;5.00;;;;;;;;;;6265533;28;20128;-60
2022/04/29 14:15:04;;;;;;;11.33;5.50;;;;;;;;;;6265757;28;20040;-59
2022/04/29 14:18:06;;;;;;;11.25;5.32;;;;;;;;;;6266838;28;20052;-60
2022/04/29 14:21:07;;;;;;;8.57;4.80;;;;;;;;;;6264892;28;20111;-60
2022/04/29 14:24:08;;;;;;;10.85;5.43;;;;;;;;;;6263912;28;20131;-58
2022/04/29 14:27:09;;;;;;;10.30;5.35;;;;;;;;;;6268279;28;20037;-59
2022/04/29 14:30:11;;;;;;;13.10;5.30;;;;;;;;;;6269647;28;20053;-59
2022/04/29 14:33:11;;;;;;;13.98;5.38;;;;;;;;;;6266417;28;20088;-59
2022/04/29 14:36:13;;;;;;;11.68;5.60;;;;;;;;;;6267447;28;20049;-59
2022/04/29 14:39:14;;;;;;;9.77;4.47;;;;;;;;;;6269666;28;20052;-60
2022/04/29 14:42:15;;;;;;;12.00;6.25;;;;;;;;;;6265582;28;20049;-59
2022/04/29 14:45:16;;;;;;;7.53;4.07;;;;;;;;;;6267924;28;20066;-58
2022/04/29 14:48:17;;;;;;;9.43;4.57;;;;;;;;;;6269143;28;20052;-60
2022/04/29 14:51:18;;;;;;;10.63;4.57;;;;;;;;;;6268612;28;20045;-60
2022/04/29 14:54:19;;;;;;;7.70;4.35;;;;;;;;;;6268090;28;20135;-60
2022/04/29 14:57:20;;;;;;;10.57;5.28;;;;;;;;;;6269725;28;20056;-60
2022/04/29 15:00:20;;;;;;;10.98;5.03;;;;;;;;;;6269335;28;20056;-60
2022/04/29 15:03:21;;;;;;;9.75;4.80;;;;;;;;;;6268585;28;20048;-60
2022/04/29 15:06:23;;;;;;;11.48;4.60;;;;;;;;;;6261408;28;20123;-59
2022/04/29 15:16:02;;;;;;;12.93;4.93;;;;;;;;;;6265400;28;20083;-61
2022/04/29 15:19:03;;;;;;;9.02;4.93;;;;;;;;;;6265063;28;20037;-59
2022/04/29 15:22:04;;;;;;;8.70;5.25;;;;;;;;;;6266020;28;20458;-58
2022/04/29 15:25:05;;;;;;;8.85;4.95;;;;;;;;;;6266189;28;20157;-60
2022/04/29 15:28:07;;;;;;;9.03;4.83;;;;;;;;;;6265607;28;20053;-59
2022/04/29 15:31:07;;;;;;;7.43;4.82;;;;;;;;;;6267399;28;20049;-60
2022/04/29 15:34:08;;;;;;;10.20;4.68;;;;;;;;;;6265541;28;20609;-61
2022/04/29 15:37:09;;;;;;;8.07;4.63;;;;;;;;;;6266680;28;20094;-59
2022/04/29 15:40:10;;;;;;;10.23;5.20;;;;;;;;;;6265943;28;20118;-58
2022/04/29 15:43:12;;;;;;;10.32;4.97;;;;;;;;;;6265501;28;20041;-59
2022/04/29 15:46:12;;;;;;;9.85;4.25;;;;;;;;;;6263864;28;20037;-59
2022/04/29 15:49:13;;;;;;;12.57;5.35;;;;;;;;;;6266112;28;20132;-59
2022/04/29 15:52:14;;;;;;;13.35;5.22;;;;;;;;;;6264181;28;20052;-59
2022/04/29 15:55:14;;;;;;;8.23;4.90;;;;;;;;;;6253144;28;20531;-59
2022/04/29 15:58:15;;;;;;;11.70;5.70;;;;;;;;;;6256108;28;20685;-59
2022/04/29 16:01:16;;;;;;;10.32;5.47;;;;;;;;;;6256685;28;20057;-59
2022/04/29 16:04:17;;;;;;;9.95;5.70;;;;;;;;;;6254396;28;20139;-59
2022/04/29 16:07:17;;;;;;;9.65;4.93;;;;;;;;;;6254558;28;20056;-58
2022/04/29 16:10:18;;;;;;;8.80;5.22;;;;;;;;;;6255254;28;20598;-58
2022/04/29 16:13:18;;;;;;;10.77;5.07;;;;;;;;;;6254596;28;20477;-59
2022/04/29 16:16:19;;;;;;;15.85;5.25;;;;;;;;;;6253128;28;20064;-59
2022/04/29 16:25:58;;;;;;;19.98;7.63;;;;;;;;;;6250727;28;20049;-59
2022/04/29 16:28:59;;;;;;;17.98;6.57;;;;;;;;;;6269380;28;20632;-58
2022/04/29 16:32:01;;;;;;;13.07;5.35;;;;;;;;;;6256450;28;20105;-58
2022/04/29 16:35:02;;;;;;;11.52;4.95;;;;;;;;;;6253581;28;20158;-58
2022/04/29 16:38:04;;;;;;;9.70;5.03;;;;;;;;;;6256144;28;20048;-58
2022/04/29 16:41:05;;;;;;;13.73;5.47;;;;;;;;;;6257467;28;20483;-58
2022/04/29 16:44:06;;;;;;;10.52;5.45;;;;;;;;;;6257209;28;20055;-58
2022/04/29 16:47:09;;;;;;;9.23;5.28;;;;;;;;;;6233908;28;20132;-58
2022/04/29 16:50:09;;;;;;;10.85;5.57;;;;;;;;;;6256847;28;20049;-57
2022/04/29 16:53:10;;;;;;;8.05;4.80;;;;;;;;;;6257151;28;20072;-55
2022/04/29 16:56:11;;;;;;;12.73;5.55;;;;;;;;;;6253567;28;20148;-55
2022/04/29 16:59:11;;;;;;;13.00;5.40;;;;;;;;;;6238189;28;20115;-57
2022/04/29 17:02:14;;;;;;;10.90;6.22;;;;;;;;;;6252117;28;20053;-57
2022/04/29 17:05:14;;;;;;;13.25;5.40;;;;;;;;;;6247636;28;20412;-58
2022/04/29 17:08:18;;;;;;;9.70;5.57;;;;;;;;;;6253158;28;20334;-57
2022/04/29 17:11:18;;;;;;;12.02;5.78;;;;;;;;;;6255950;28;20850;-57
2022/04/29 17:14:20;;;;;;;14.13;6.13;;;;;;;;;;6255167;28;20136;-58
2022/04/29 17:17:22;;;;;;;16.00;6.22;;;;;;;;;;6252370;28;20085;-59
2022/04/29 17:20:22;;;;;;;11.75;5.82;;;;;;;;;;6251228;28;20048;-59
2022/04/29 17:23:23;;;;;;;33.72;13.82;;;;;;;;;;6253377;28;20049;-59
2022/04/29 17:26:24;;;;;;;21.33;9.95;;;;;;;;;;6250987;28;20072;-57
2022/04/29 17:29:25;;;;;;;12.48;5.38;;;;;;;;;;6251480;28;20120;-54
2022/04/29 17:32:26;;;;;;;18.23;6.97;;;;;;;;;;6260472;28;20048;-60
2022/04/29 17:35:27;;;;;;;10.57;4.75;;;;;;;;;;6265199;28;20052;-55
2022/04/29 17:38:27;;;;;;;7.82;3.92;;;;;;;;;;6265729;28;20072;-53
2022/04/29 17:44:50;;;;;;;14.65;5.15;;;;;;;;;;6250355;28;20048;-58
2022/04/29 17:47:50;;;;;;;14.35;5.45;;;;;;;;;;6263160;28;20048;-56
2022/04/29 17:50:51;;;;;;;9.35;4.43;;;;;;;;;;6263836;28;20120;-58
2022/04/29 17:53:52;;;;;;;9.57;4.25;;;;;;;;;;6263345;28;20183;-56
2022/04/29 17:56:53;;;;;;;9.52;4.38;;;;;;;;;;6261038;28;20094;-59
2022/04/29 17:59:54;;;;;;;8.20;4.30;;;;;;;;;;6263376;28;20076;-56
2022/04/29 18:02:54;;;;;;;10.43;4.80;;;;;;;;;;6263564;28;20106;-55
2022/04/29 18:05:55;;;;;;;12.77;5.90;;;;;;;;;;6262544;28;20048;-54
2022/04/29 18:08:55;;;;;;;13.38;5.63;;;;;;;;;;6262423;28;20045;-58
2022/04/29 18:11:56;;;;;;;29.77;9.13;;;;;;;;;;6261743;28;20041;-58
2022/04/29 18:14:58;;;;;;;23.73;8.48;;;;;;;;;;6258364;28;20575;-59
2022/04/29 18:17:58;;;;;;;;;;;;;;;;;;6263998;28;20098;-57
2022/04/29 18:20:59;;;;;;;43.17;13.25;;;;;;;;;;6265330;28;20384;-58
2022/04/29 18:24:00;;;;;;;42.45;14.93;;;;;;;;;;6265273;28;20055;-56
2022/04/29 18:27:00;;;;;;;72.28;21.50;;;;;;;;;;6265294;28;20186;-56
2022/04/29 18:30:02;;;;;;;67.03;24.55;;;;;;;;;;6266564;28;20504;-54
2022/04/29 18:33:03;;;;;;;60.05;24.33;;;;;;;;;;6267406;28;20052;-54
2022/04/29 18:36:04;;;;;;;31.23;16.02;;;;;;;;;;6266292;28;20076;-55
2022/04/29 18:39:05;;;;;;;23.83;11.23;;;;;;;;;;6266190;28;20387;-55
2022/04/29 18:42:06;;;;;;;17.67;9.68;;;;;;;;;;6267706;28;20511;-57